Pagrindinis puslapis
METAR-TAF:

METAR-TAF

Oro uostai :

Džengdžou, Kinija

platuma: 34-43N, ilguma: 113-39E, Aukštis: 111 m

Dabartinis oras

Ataskaita buvo paskelbta 1 valandą ir 8 minutes, ne 18:00 UTC
Vėjas 2 kt iš Pietų/Pietvakarių
Temperatūra 2°C
Drėgmė 51%
Slėgis 1030 hPa
Matomumas 10 km arba daugiau
nėra debesų žemiau 1500 m ir nėra kamuolinių lietaus debesų

METAR: ZHCC 171800Z 21001MPS CAVOK 02/M07 Q1030 NOSIG

Laikas: 03:08 (19:08 UTC)

Prognozė

Ataskaita buvo paskelbta 4 valandos ir 5 minutes, ne 15:03 UTC
Prognozė galioja nuo 17 metu 18 UTC su 18 metu 18 UTC
Vėjas 6 kt iš Pietų
Matomumas: 7000 m

TAF: ZHCC 171503Z 1718/1818 18003MPS 7000 NSC TX15/1807Z TN00/1722Z

Orai ataskaitas ir orų prognozės (METAR, TAF).

turimą stotys yra geltonos ir raudonos taškus žemėlapyje.

Perkelti pele per norėdami pamatyti stoties vardą.

Tada spustelėkite, norėdami matyti oro stebėjimo ir prognozės.

Norėdami pakeisti žemėlapį: spustelėkite ant žalios mygtukų su juodo kryžiaus žemyn,; žalią mygtuką su brūkšneliu, jei norite nutolinti; arba žalių rodyklių gretimoms žemėlapius.


METAR-TAF: